createdAt,value
2023-02-19T00:00:53.383Z,1008.88
2023-02-19T00:01:53.403Z,1008.88
2023-02-19T00:02:53.341Z,1008.96
2023-02-19T00:03:53.341Z,1008.96
2023-02-19T00:04:53.377Z,1008.93
2023-02-19T00:05:53.315Z,1008.90
2023-02-19T00:06:53.313Z,1008.87
2023-02-19T00:07:53.290Z,1008.85
2023-02-19T00:08:53.274Z,1008.83
2023-02-19T00:09:53.488Z,1008.93
2023-02-19T00:10:53.272Z,1008.87
2023-02-19T00:11:53.242Z,1008.94
2023-02-19T00:12:53.242Z,1008.93
2023-02-19T00:13:53.216Z,1008.99
2023-02-19T00:14:53.208Z,1008.96
2023-02-19T00:15:53.179Z,1008.93
2023-02-19T00:16:53.180Z,1008.91
2023-02-19T00:17:53.158Z,1008.94
2023-02-19T00:18:53.154Z,1008.91
2023-02-19T00:19:53.153Z,1008.94
2023-02-19T00:20:53.128Z,1008.91
2023-02-19T00:21:53.098Z,1008.90
2023-02-19T00:22:53.126Z,1008.91
2023-02-19T00:23:53.081Z,1008.92
2023-02-19T00:24:53.102Z,1008.94
2023-02-19T00:25:53.072Z,1008.91
2023-02-19T00:26:53.054Z,1008.92
2023-02-19T00:27:53.038Z,1008.93
2023-02-19T00:28:53.034Z,1008.91
2023-02-19T00:29:53.058Z,1008.89
2023-02-19T00:30:53.031Z,1008.93
2023-02-19T00:31:53.026Z,1008.88
2023-02-19T00:32:52.971Z,1008.84
2023-02-19T00:33:52.939Z,1008.86
2023-02-19T00:34:52.941Z,1008.86
2023-02-19T00:35:53.010Z,1008.85
2023-02-19T00:36:52.926Z,1008.80
2023-02-19T00:37:52.902Z,1008.76
2023-02-19T00:38:52.921Z,1008.74
2023-02-19T00:39:52.915Z,1008.75
2023-02-19T00:40:52.886Z,1008.73
2023-02-19T00:41:52.865Z,1008.71
2023-02-19T00:42:52.841Z,1008.75
2023-02-19T00:43:52.860Z,1008.71
2023-02-19T00:44:52.845Z,1008.67
2023-02-19T00:45:52.824Z,1008.60
2023-02-19T00:46:52.827Z,1008.60
2023-02-19T00:47:52.821Z,1008.65
2023-02-19T00:48:52.774Z,1008.59
2023-02-19T00:49:52.751Z,1008.64
2023-02-19T00:50:52.750Z,1008.69
2023-02-19T00:51:52.732Z,1008.66
2023-02-19T00:52:52.730Z,1008.72
2023-02-19T00:53:52.738Z,1008.69
2023-02-19T00:54:52.684Z,1008.67
2023-02-19T00:55:52.687Z,1008.69
2023-02-19T00:56:52.681Z,1008.75
2023-02-19T00:57:52.694Z,1008.74
2023-02-19T00:58:52.640Z,1008.78
2023-02-19T00:59:52.617Z,1008.75
2023-02-19T01:00:52.623Z,1008.73
2023-02-19T01:01:52.613Z,1008.80
2023-02-19T01:02:52.612Z,1008.73
2023-02-19T01:03:52.600Z,1008.75
2023-02-19T01:04:52.611Z,1008.82
2023-02-19T01:05:52.540Z,1008.76
2023-02-19T01:06:52.560Z,1008.74
2023-02-19T01:07:52.590Z,1008.66
2023-02-19T01:08:52.592Z,1008.65
2023-02-19T01:09:52.503Z,1008.69
2023-02-19T01:10:52.510Z,1008.67
2023-02-19T01:11:52.463Z,1008.65
2023-02-19T01:12:52.517Z,1008.60
2023-02-19T01:13:52.437Z,1008.66
2023-02-19T01:14:52.417Z,1008.61
2023-02-19T01:15:52.504Z,1008.57
2023-02-19T01:16:52.431Z,1008.61
2023-02-19T01:17:52.397Z,1008.59
2023-02-19T01:18:52.395Z,1008.57
2023-02-19T01:19:52.357Z,1008.56
2023-02-19T01:20:52.360Z,1008.59
2023-02-19T01:21:52.360Z,1008.52
2023-02-19T01:22:52.352Z,1008.49
2023-02-19T01:23:52.323Z,1008.53
2023-02-19T01:24:52.320Z,1008.56
2023-02-19T01:25:52.301Z,1008.49
2023-02-19T01:26:52.307Z,1008.44
2023-02-19T01:27:52.295Z,1008.42
2023-02-19T01:28:52.262Z,1008.48
2023-02-19T01:29:52.267Z,1008.43
2023-02-19T01:30:52.238Z,1008.34
2023-02-19T01:31:52.290Z,1008.34
2023-02-19T01:32:52.215Z,1008.31
2023-02-19T01:33:52.190Z,1008.28
2023-02-19T01:34:52.192Z,1008.26
2023-02-19T01:35:52.181Z,1008.16
2023-02-19T01:36:52.202Z,1008.23
2023-02-19T01:37:52.129Z,1008.22
2023-02-19T01:38:52.140Z,1008.28
2023-02-19T01:39:52.136Z,1008.24
2023-02-19T01:40:52.120Z,1008.14
2023-02-19T01:41:52.094Z,1008.19
2023-02-19T01:42:52.091Z,1008.09
2023-02-19T01:43:52.065Z,1008.10
2023-02-19T01:44:52.066Z,1008.01
2023-02-19T01:45:52.065Z,1007.94
2023-02-19T01:46:52.039Z,1007.88
2023-02-19T01:47:51.999Z,1007.82
2023-02-19T01:48:51.998Z,1007.86
2023-02-19T01:49:52.001Z,1007.86
2023-02-19T01:50:51.989Z,1007.92
2023-02-19T01:51:51.972Z,1007.95
2023-02-19T01:52:51.972Z,1008.02
2023-02-19T01:53:51.926Z,1008.01
2023-02-19T01:54:51.908Z,1008.06
2023-02-19T01:55:51.934Z,1008.08
2023-02-19T01:56:51.929Z,1008.10
2023-02-19T01:57:51.891Z,1008.02
2023-02-19T01:58:51.878Z,1008.07
2023-02-19T01:59:51.869Z,1007.91
2023-02-19T02:00:51.935Z,1008.00
2023-02-19T02:01:51.855Z,1007.98
2023-02-19T02:02:51.824Z,1007.97
2023-02-19T02:03:51.812Z,1007.89
2023-02-19T02:04:51.809Z,1007.92
2023-02-19T02:05:51.792Z,1007.92
2023-02-19T02:06:51.781Z,1007.83
2023-02-19T02:07:51.782Z,1007.89
2023-02-19T02:08:51.737Z,1007.87
2023-02-19T02:09:51.753Z,1007.82
2023-02-19T02:10:51.710Z,1007.80
2023-02-19T02:11:51.738Z,1007.77
2023-02-19T02:12:51.687Z,1007.78
2023-02-19T02:13:51.679Z,1007.74
2023-02-19T02:14:51.662Z,1007.62
2023-02-19T02:15:51.819Z,1007.60
2023-02-19T02:16:51.642Z,1007.60
2023-02-19T02:17:51.638Z,1007.63
2023-02-19T02:18:51.609Z,1007.59
2023-02-19T02:19:51.626Z,1007.53
2023-02-19T02:20:51.613Z,1007.61
2023-02-19T02:21:51.609Z,1007.64
2023-02-19T02:22:51.585Z,1007.64
2023-02-19T02:23:51.562Z,1007.63
2023-02-19T02:24:51.553Z,1007.70
2023-02-19T02:25:58.632Z,1007.75
2023-02-19T02:26:51.549Z,1007.73
2023-02-19T02:27:51.521Z,1007.69
2023-02-19T02:28:51.497Z,1007.70
2023-02-19T02:29:51.479Z,1007.72
2023-02-19T02:30:51.497Z,1007.66
2023-02-19T02:31:51.583Z,1007.69
2023-02-19T02:32:51.447Z,1007.71
2023-02-19T02:33:51.442Z,1007.74
2023-02-19T02:34:51.431Z,1007.69
2023-02-19T02:35:51.417Z,1007.77
2023-02-19T02:36:51.410Z,1007.79
2023-02-19T02:37:51.414Z,1007.86
2023-02-19T02:38:51.396Z,1007.83
2023-02-19T02:39:51.416Z,1007.82
2023-02-19T02:40:51.351Z,1007.83
2023-02-19T02:41:51.328Z,1007.77
2023-02-19T02:42:51.307Z,1007.81
2023-02-19T02:43:51.322Z,1007.78
2023-02-19T02:44:51.287Z,1007.71
2023-02-19T02:45:51.365Z,1007.77
2023-02-19T02:46:51.281Z,1007.76
2023-02-19T02:47:51.275Z,1007.75
2023-02-19T02:48:51.248Z,1007.75
2023-02-19T02:49:51.227Z,1007.73
2023-02-19T02:50:51.230Z,1007.78
2023-02-19T02:51:51.212Z,1007.72
2023-02-19T02:52:51.189Z,1007.73
2023-02-19T02:53:51.190Z,1007.67
2023-02-19T02:54:51.181Z,1007.69
2023-02-19T02:55:51.161Z,1007.74
2023-02-19T02:56:51.177Z,1007.76
2023-02-19T02:57:51.125Z,1007.73
2023-02-19T02:58:51.127Z,1007.68
2023-02-19T02:59:51.110Z,1007.75
2023-02-19T03:00:51.137Z,1007.74
2023-02-19T03:01:51.112Z,1007.78
2023-02-19T03:02:51.056Z,1007.76
2023-02-19T03:03:51.063Z,1007.83
2023-02-19T03:04:51.060Z,1007.78
2023-02-19T03:05:51.023Z,1007.79
2023-02-19T03:06:51.030Z,1007.78
2023-02-19T03:07:51.019Z,1007.81
2023-02-19T03:08:50.998Z,1007.87
2023-02-19T03:09:50.987Z,1007.83
2023-02-19T03:10:50.974Z,1007.80
2023-02-19T03:11:50.960Z,1007.83
2023-02-19T03:12:50.932Z,1007.85
2023-02-19T03:13:50.924Z,1007.84
2023-02-19T03:14:50.920Z,1007.78
2023-02-19T03:15:50.910Z,1007.80
2023-02-19T03:16:50.901Z,1007.81
2023-02-19T03:17:50.892Z,1007.89
2023-02-19T03:18:50.868Z,1007.91
2023-02-19T03:19:50.866Z,1007.89
2023-02-19T03:20:50.833Z,1007.89
2023-02-19T03:21:50.814Z,1007.98
2023-02-19T03:22:50.825Z,1007.97
2023-02-19T03:23:50.806Z,1008.01
2023-02-19T03:24:50.790Z,1008.00
2023-02-19T03:25:50.762Z,1007.94
2023-02-19T03:26:50.744Z,1008.03
2023-02-19T03:27:50.742Z,1007.99
2023-02-19T03:28:50.746Z,1008.04
2023-02-19T03:29:50.730Z,1008.13
2023-02-19T03:30:50.693Z,1008.13
2023-02-19T03:31:50.747Z,1008.16
2023-02-19T03:32:50.694Z,1008.09
2023-02-19T03:33:50.685Z,1008.20
2023-02-19T03:34:50.654Z,1008.19
2023-02-19T03:35:50.647Z,1008.11
2023-02-19T03:36:50.622Z,1008.17
2023-02-19T03:37:50.609Z,1008.13
2023-02-19T03:38:50.605Z,1008.13
2023-02-19T03:39:50.593Z,1008.14
2023-02-19T03:40:50.564Z,1008.16
2023-02-19T03:41:50.577Z,1008.13
2023-02-19T03:42:50.542Z,1008.11
2023-02-19T03:43:50.531Z,1008.13
2023-02-19T03:44:50.555Z,1008.12
2023-02-19T03:45:50.527Z,1008.16
2023-02-19T03:46:50.515Z,1008.14
2023-02-19T03:47:50.480Z,1008.15
2023-02-19T03:48:50.476Z,1008.13
2023-02-19T03:49:50.465Z,1008.13
2023-02-19T03:50:50.461Z,1008.17
2023-02-19T03:51:50.431Z,1008.14
2023-02-19T03:52:50.411Z,1008.16
2023-02-19T03:53:50.420Z,1008.18
2023-02-19T03:54:50.382Z,1008.11
2023-02-19T03:55:50.404Z,1008.20
2023-02-19T03:56:50.363Z,1008.22
2023-02-19T03:57:50.364Z,1008.30
2023-02-19T03:58:50.344Z,1008.27
2023-02-19T03:59:50.350Z,1008.19
2023-02-19T04:00:50.314Z,1008.25
2023-02-19T04:01:50.319Z,1008.28
2023-02-19T04:02:50.305Z,1008.24
2023-02-19T04:03:50.286Z,1008.19
2023-02-19T04:04:50.308Z,1008.27
2023-02-19T04:05:50.257Z,1008.26
2023-02-19T04:06:50.255Z,1008.18
2023-02-19T04:07:50.236Z,1008.17
2023-02-19T04:08:50.217Z,1008.21
2023-02-19T04:09:50.215Z,1008.20
2023-02-19T04:10:50.207Z,1008.17
2023-02-19T04:11:50.232Z,1008.24
2023-02-19T04:12:50.177Z,1008.27
2023-02-19T04:13:50.177Z,1008.29
2023-02-19T04:14:50.173Z,1008.31
2023-02-19T04:15:50.134Z,1008.29
2023-02-19T04:16:50.185Z,1008.23
2023-02-19T04:17:50.125Z,1008.28
2023-02-19T04:18:50.111Z,1008.31
2023-02-19T04:19:50.086Z,1008.30
2023-02-19T04:20:50.083Z,1008.34
2023-02-19T04:21:50.059Z,1008.34
2023-02-19T04:22:50.057Z,1008.35
2023-02-19T04:23:50.051Z,1008.31
2023-02-19T04:24:50.051Z,1008.34
2023-02-19T04:25:50.023Z,1008.34
2023-02-19T04:26:50.011Z,1008.40
2023-02-19T04:27:49.985Z,1008.46
2023-02-19T04:28:49.983Z,1008.41
2023-02-19T04:29:49.986Z,1008.38
2023-02-19T04:30:49.966Z,1008.40
2023-02-19T04:31:49.990Z,1008.43
2023-02-19T04:32:49.923Z,1008.52
2023-02-19T04:33:49.936Z,1008.46
2023-02-19T04:34:49.892Z,1008.44
2023-02-19T04:35:49.901Z,1008.50
2023-02-19T04:36:49.858Z,1008.47
2023-02-19T04:37:49.852Z,1008.51
2023-02-19T04:38:49.845Z,1008.57
2023-02-19T04:39:49.855Z,1008.60
2023-02-19T04:40:49.829Z,1008.59
2023-02-19T04:41:49.836Z,1008.59
2023-02-19T04:42:49.781Z,1008.59
2023-02-19T04:43:49.793Z,1008.60
2023-02-19T04:44:49.774Z,1008.57
2023-02-19T04:45:49.791Z,1008.60
2023-02-19T04:46:49.731Z,1008.54
2023-02-19T04:47:49.741Z,1008.56
2023-02-19T04:48:49.734Z,1008.61
2023-02-19T04:49:49.733Z,1008.55
2023-02-19T04:50:49.680Z,1008.60
2023-02-19T04:51:49.697Z,1008.60
2023-02-19T04:52:49.673Z,1008.64
2023-02-19T04:53:49.663Z,1008.63
2023-02-19T04:54:49.629Z,1008.59
2023-02-19T04:55:49.620Z,1008.68
2023-02-19T04:56:49.609Z,1008.68
2023-02-19T04:57:49.608Z,1008.65
2023-02-19T04:58:49.578Z,1008.61
2023-02-19T04:59:49.589Z,1008.65
2023-02-19T05:00:49.573Z,1008.68
2023-02-19T05:01:49.564Z,1008.63
2023-02-19T05:02:49.565Z,1008.66
2023-02-19T05:03:49.528Z,1008.67
2023-02-19T05:04:49.509Z,1008.63
2023-02-19T05:05:49.510Z,1008.73
2023-02-19T05:06:49.477Z,1008.75
2023-02-19T05:07:49.485Z,1008.77
2023-02-19T05:08:49.472Z,1008.74
2023-02-19T05:09:49.453Z,1008.78
2023-02-19T05:10:49.441Z,1008.82
2023-02-19T05:11:49.425Z,1008.73
2023-02-19T05:12:49.430Z,1008.85
2023-02-19T05:13:49.402Z,1008.81
2023-02-19T05:14:49.394Z,1008.86
2023-02-19T05:15:49.424Z,1008.78
2023-02-19T05:16:49.348Z,1008.81
2023-02-19T05:17:49.343Z,1008.75
2023-02-19T05:18:49.336Z,1008.78
2023-02-19T05:19:49.346Z,1008.83
2023-02-19T05:20:49.312Z,1008.79
2023-02-19T05:21:49.305Z,1008.82
2023-02-19T05:22:49.326Z,1008.76
2023-02-19T05:23:49.290Z,1008.78
2023-02-19T05:24:49.262Z,1008.73
2023-02-19T05:25:49.240Z,1008.67
2023-02-19T05:26:49.243Z,1008.70
2023-02-19T05:27:49.271Z,1008.66
2023-02-19T05:28:49.208Z,1008.70
2023-02-19T05:29:49.203Z,1008.67
2023-02-19T05:30:49.252Z,1008.63
2023-02-19T05:31:49.523Z,1008.66
2023-02-19T05:32:49.191Z,1008.66
2023-02-19T05:33:49.152Z,1008.70
2023-02-19T05:34:49.141Z,1008.65
2023-02-19T05:35:49.129Z,1008.67
2023-02-19T05:36:49.099Z,1008.64
2023-02-19T05:37:49.186Z,1008.69
2023-02-19T05:38:49.105Z,1008.70
2023-02-19T05:39:49.098Z,1008.76
2023-02-19T05:40:49.060Z,1008.73
2023-02-19T05:41:49.050Z,1008.74
2023-02-19T05:42:49.051Z,1008.74
2023-02-19T05:43:49.035Z,1008.76
2023-02-19T05:44:48.996Z,1008.74
2023-02-19T05:45:49.006Z,1008.70
2023-02-19T05:46:48.988Z,1008.74
2023-02-19T05:47:48.973Z,1008.72
2023-02-19T05:48:48.979Z,1008.82
2023-02-19T05:49:48.946Z,1008.75
2023-02-19T05:50:48.940Z,1008.74
2023-02-19T05:51:48.930Z,1008.72
2023-02-19T05:52:48.906Z,1008.78
2023-02-19T05:53:48.911Z,1008.77
2023-02-19T05:54:48.891Z,1008.78
2023-02-19T05:55:48.880Z,1008.77
2023-02-19T05:56:48.878Z,1008.77
2023-02-19T05:57:48.841Z,1008.79
2023-02-19T05:58:48.839Z,1008.76
2023-02-19T05:59:48.833Z,1008.80
2023-02-19T06:00:48.806Z,1008.83
2023-02-19T06:01:48.825Z,1008.91
2023-02-19T06:02:48.859Z,1008.88
2023-02-19T06:03:48.821Z,1008.86
2023-02-19T06:04:48.746Z,1008.87
2023-02-19T06:05:48.774Z,1008.90
2023-02-19T06:06:48.765Z,1008.88
2023-02-19T06:07:48.723Z,1008.89
2023-02-19T06:08:48.731Z,1008.87
2023-02-19T06:09:48.696Z,1008.87
2023-02-19T06:10:48.691Z,1008.90
2023-02-19T06:11:48.666Z,1008.84
2023-02-19T06:12:48.657Z,1008.85
2023-02-19T06:13:48.646Z,1008.81
2023-02-19T06:14:48.650Z,1008.86
2023-02-19T06:15:48.642Z,1008.84
2023-02-19T06:16:48.640Z,1008.83
2023-02-19T06:17:48.617Z,1008.85
2023-02-19T06:18:48.595Z,1008.84
2023-02-19T06:19:48.595Z,1008.87
2023-02-19T06:20:48.578Z,1008.79
2023-02-19T06:21:48.551Z,1008.80
2023-02-19T06:22:48.552Z,1008.78
2023-02-19T06:23:48.523Z,1008.83
2023-02-19T06:24:48.522Z,1008.79
2023-02-19T06:25:48.510Z,1008.83
2023-02-19T06:26:48.499Z,1008.86
2023-02-19T06:27:48.466Z,1008.87
2023-02-19T06:28:48.497Z,1008.86
2023-02-19T06:29:48.440Z,1008.92
2023-02-19T06:30:50.612Z,1008.87
2023-02-19T06:31:48.483Z,1008.88
2023-02-19T06:32:48.425Z,1008.85
2023-02-19T06:33:48.411Z,1008.86
2023-02-19T06:34:48.421Z,1008.86
2023-02-19T06:35:48.391Z,1008.91
2023-02-19T06:36:48.359Z,1008.90
2023-02-19T06:37:48.346Z,1008.88
2023-02-19T06:38:48.341Z,1008.89
2023-02-19T06:39:48.341Z,1008.94
2023-02-19T06:40:48.310Z,1009.02
2023-02-19T06:41:48.299Z,1009.10
2023-02-19T06:42:48.290Z,1009.05
2023-02-19T06:43:48.272Z,1009.11
2023-02-19T06:44:48.260Z,1009.15
2023-02-19T06:45:48.269Z,1009.16
2023-02-19T06:46:48.314Z,1009.12
2023-02-19T06:47:48.243Z,1009.22
2023-02-19T06:48:48.226Z,1009.25
2023-02-19T06:49:48.205Z,1009.31
2023-02-19T06:50:48.226Z,1009.29
2023-02-19T06:51:48.171Z,1009.39
2023-02-19T06:52:48.189Z,1009.39
2023-02-19T06:53:48.143Z,1009.42
2023-02-19T06:54:48.133Z,1009.38
2023-02-19T06:55:48.143Z,1009.42
2023-02-19T06:56:48.126Z,1009.48
2023-02-19T06:57:48.111Z,1009.43
2023-02-19T06:58:48.100Z,1009.47
2023-02-19T06:59:48.071Z,1009.49
2023-02-19T07:00:48.099Z,1009.57
2023-02-19T07:01:48.041Z,1009.55
2023-02-19T07:02:48.046Z,1009.59
2023-02-19T07:03:48.047Z,1009.55
2023-02-19T07:04:48.011Z,1009.58
2023-02-19T07:05:48.049Z,1009.49
2023-02-19T07:06:48.014Z,1009.53
2023-02-19T07:07:47.981Z,1009.48
2023-02-19T07:08:47.970Z,1009.53
2023-02-19T07:09:47.951Z,1009.46
2023-02-19T07:10:47.936Z,1009.57
2023-02-19T07:11:47.916Z,1009.53
2023-02-19T07:12:47.931Z,1009.59
2023-02-19T07:13:47.896Z,1009.57
2023-02-19T07:14:47.898Z,1009.62
2023-02-19T07:15:47.866Z,1009.69
2023-02-19T07:16:47.865Z,1009.67
2023-02-19T07:17:47.856Z,1009.62
2023-02-19T07:18:47.848Z,1009.66
2023-02-19T07:19:47.833Z,1009.64
2023-02-19T07:20:47.826Z,1009.69
2023-02-19T07:21:47.793Z,1009.73
2023-02-19T07:22:47.787Z,1009.69
2023-02-19T07:23:47.764Z,1009.76
2023-02-19T07:24:48.075Z,1009.85
2023-02-19T07:25:47.758Z,1009.83
2023-02-19T07:26:47.736Z,1009.85
2023-02-19T07:27:47.719Z,1009.84
2023-02-19T07:28:47.709Z,1009.85
2023-02-19T07:29:47.726Z,1009.85
2023-02-19T07:30:47.716Z,1009.87
2023-02-19T07:31:47.710Z,1009.91
2023-02-19T07:32:47.663Z,1009.90
2023-02-19T07:33:47.658Z,1009.99
2023-02-19T07:34:47.646Z,1010.01
2023-02-19T07:35:47.639Z,1010.04
2023-02-19T07:36:47.617Z,1010.01
2023-02-19T07:37:47.597Z,1010.05
2023-02-19T07:38:47.599Z,1010.08
2023-02-19T07:39:47.565Z,1010.05
2023-02-19T07:40:47.564Z,1010.05
2023-02-19T07:41:47.561Z,1010.03
2023-02-19T07:42:47.551Z,1010.03
2023-02-19T07:43:47.529Z,1010.11
2023-02-19T07:44:47.526Z,1010.03
2023-02-19T07:45:47.710Z,1010.14
2023-02-19T07:46:47.503Z,1010.16
2023-02-19T07:47:47.477Z,1010.07
2023-02-19T07:48:47.483Z,1010.21
2023-02-19T07:49:47.462Z,1010.14
2023-02-19T07:50:47.438Z,1010.22
2023-02-19T07:51:47.555Z,1010.16
2023-02-19T07:52:47.407Z,1010.25
2023-02-19T07:53:47.399Z,1010.22
2023-02-19T07:54:47.411Z,1010.22
2023-02-19T07:55:47.398Z,1010.25
2023-02-19T07:56:47.370Z,1010.26
2023-02-19T07:57:47.373Z,1010.24
2023-02-19T07:58:47.348Z,1010.30
2023-02-19T07:59:47.350Z,1010.29
2023-02-19T08:00:47.355Z,1010.34
2023-02-19T08:01:47.322Z,1010.28
2023-02-19T08:02:47.381Z,1010.33
2023-02-19T08:03:50.124Z,1010.39
2023-02-19T08:04:47.285Z,1010.36
2023-02-19T08:05:47.263Z,1010.46
2023-02-19T08:06:47.249Z,1010.44
2023-02-19T08:07:47.233Z,1010.45
2023-02-19T08:08:47.217Z,1010.49
2023-02-19T08:09:47.222Z,1010.53
2023-02-19T08:10:47.191Z,1010.53
2023-02-19T08:11:47.169Z,1010.61
2023-02-19T08:12:47.177Z,1010.75
2023-02-19T08:13:47.151Z,1010.59
2023-02-19T08:14:47.197Z,1010.63
2023-02-19T08:15:47.131Z,1010.70
2023-02-19T08:16:47.220Z,1010.72
2023-02-19T08:17:47.110Z,1010.79
2023-02-19T08:18:47.097Z,1010.85
2023-02-19T08:19:48.462Z,1010.82
2023-02-19T08:20:47.225Z,1010.82
2023-02-19T08:21:47.140Z,1010.86
2023-02-19T08:22:47.051Z,1010.82
2023-02-19T08:23:48.345Z,1010.92
2023-02-19T08:24:47.029Z,1010.88
2023-02-19T08:25:47.012Z,1010.91
2023-02-19T08:26:54.027Z,1011.08
2023-02-19T08:27:46.991Z,1011.02
2023-02-19T08:28:46.987Z,1011.03
2023-02-19T08:29:47.004Z,1011.06
2023-02-19T08:30:47.121Z,1011.06
2023-02-19T08:31:47.063Z,1011.11
2023-02-19T08:32:46.920Z,1011.10
2023-02-19T08:33:46.904Z,1011.13
2023-02-19T08:34:46.927Z,1011.19
2023-02-19T08:35:46.885Z,1011.27
2023-02-19T08:36:46.913Z,1011.32
2023-02-19T08:37:46.834Z,1011.45
2023-02-19T08:38:46.834Z,1011.47
2023-02-19T08:39:46.813Z,1011.34
2023-02-19T08:40:46.828Z,1011.30
2023-02-19T08:41:46.793Z,1011.34
2023-02-19T08:42:46.775Z,1011.32
2023-02-19T08:43:46.762Z,1011.40
2023-02-19T08:44:46.766Z,1011.41
2023-02-19T08:45:46.835Z,1011.37
2023-02-19T08:46:46.734Z,1011.41
2023-02-19T08:47:46.725Z,1011.48
2023-02-19T08:48:46.703Z,1011.36
2023-02-19T08:49:46.682Z,1011.50
2023-02-19T08:50:46.686Z,1011.43
2023-02-19T08:51:46.661Z,1011.45
2023-02-19T08:52:46.675Z,1011.44
2023-02-19T08:53:46.630Z,1011.49
2023-02-19T08:54:46.634Z,1011.52
2023-02-19T08:55:46.661Z,1011.49
2023-02-19T08:56:46.641Z,1011.58
2023-02-19T08:57:46.594Z,1011.52
2023-02-19T08:58:46.585Z,1011.61
2023-02-19T08:59:46.549Z,1011.62
2023-02-19T09:00:46.559Z,1011.79
2023-02-19T09:01:46.616Z,1011.62
2023-02-19T09:02:46.531Z,1011.67
2023-02-19T09:03:46.526Z,1011.70
2023-02-19T09:04:46.523Z,1011.70
2023-02-19T09:05:46.504Z,1011.75
2023-02-19T09:06:46.476Z,1011.79
2023-02-19T09:07:46.460Z,1011.76
2023-02-19T09:08:46.467Z,1011.78
2023-02-19T09:09:46.432Z,1011.77
2023-02-19T09:10:46.430Z,1011.86
2023-02-19T09:11:49.009Z,1011.82
2023-02-19T09:12:46.417Z,1011.81
2023-02-19T09:13:46.388Z,1011.85
2023-02-19T09:14:46.392Z,1011.93
2023-02-19T09:15:46.392Z,1011.84
2023-02-19T09:16:46.347Z,1011.86
2023-02-19T09:17:46.348Z,1011.91
2023-02-19T09:18:46.380Z,1011.91
2023-02-19T09:19:46.310Z,1011.90
2023-02-19T09:20:46.299Z,1011.94
2023-02-19T09:21:46.285Z,1011.95
2023-02-19T09:22:46.283Z,1012.02
2023-02-19T09:23:46.287Z,1011.90
2023-02-19T09:24:46.271Z,1011.97
2023-02-19T09:25:46.221Z,1011.94
2023-02-19T09:26:46.225Z,1011.87
2023-02-19T09:27:46.234Z,1011.95
2023-02-19T09:28:46.201Z,1011.95
2023-02-19T09:29:46.171Z,1012.05
2023-02-19T09:30:46.209Z,1011.91
2023-02-19T09:31:46.251Z,1012.00
2023-02-19T09:32:46.148Z,1011.96
2023-02-19T09:33:46.175Z,1011.94
2023-02-19T09:34:46.144Z,1011.98
2023-02-19T09:35:46.121Z,1011.99
2023-02-19T09:36:46.093Z,1011.92
2023-02-19T09:37:46.074Z,1011.99
2023-02-19T09:38:46.102Z,1012.01
2023-02-19T09:39:46.062Z,1011.99
2023-02-19T09:40:46.036Z,1011.98
2023-02-19T09:41:46.022Z,1012.04
2023-02-19T09:42:46.033Z,1012.05
2023-02-19T09:43:46.006Z,1012.10
2023-02-19T09:44:46.035Z,1012.04
2023-02-19T09:45:46.003Z,1012.00
2023-02-19T09:46:45.989Z,1012.03
2023-02-19T09:47:45.952Z,1012.18
2023-02-19T09:48:45.949Z,1012.07
2023-02-19T09:49:45.921Z,1012.10
2023-02-19T09:50:45.924Z,1012.11
2023-02-19T09:51:45.906Z,1012.12
2023-02-19T09:52:45.907Z,1012.10
2023-02-19T09:53:45.874Z,1012.06
2023-02-19T09:54:45.905Z,1012.12
2023-02-19T09:55:45.863Z,1012.14
2023-02-19T09:56:45.855Z,1012.18
2023-02-19T09:57:45.817Z,1012.33
2023-02-19T09:58:45.811Z,1012.20
2023-02-19T09:59:45.830Z,1012.23
2023-02-19T10:00:45.790Z,1012.24
2023-02-19T10:01:45.847Z,1012.29
2023-02-19T10:02:45.762Z,1012.30
2023-02-19T10:03:45.740Z,1012.26
2023-02-19T10:04:45.831Z,1012.33
2023-02-19T10:05:45.794Z,1012.28
2023-02-19T10:06:45.710Z,1012.37
2023-02-19T10:07:45.723Z,1012.36
2023-02-19T10:08:45.680Z,1012.38
2023-02-19T10:09:45.660Z,1012.34
2023-02-19T10:10:45.675Z,1012.47
2023-02-19T10:11:45.642Z,1012.49
2023-02-19T10:12:45.630Z,1012.59
2023-02-19T10:13:45.621Z,1012.51
2023-02-19T10:14:45.625Z,1012.51
2023-02-19T10:15:45.601Z,1012.42
2023-02-19T10:16:45.601Z,1012.46
2023-02-19T10:17:45.580Z,1012.60
2023-02-19T10:18:45.565Z,1012.48
2023-02-19T10:19:45.544Z,1012.51
2023-02-19T10:20:45.541Z,1012.58
2023-02-19T10:21:45.532Z,1012.57
2023-02-19T10:22:45.500Z,1012.67
2023-02-19T10:23:45.509Z,1012.62
2023-02-19T10:24:45.482Z,1012.52
2023-02-19T10:25:45.461Z,1012.68
2023-02-19T10:26:45.450Z,1012.66
2023-02-19T10:27:45.454Z,1012.76
2023-02-19T10:28:45.433Z,1012.75
2023-02-19T10:29:45.418Z,1012.87
2023-02-19T10:30:45.391Z,1012.83
2023-02-19T10:31:45.501Z,1012.90
2023-02-19T10:32:45.384Z,1012.87
2023-02-19T10:33:45.374Z,1012.89
2023-02-19T10:34:45.361Z,1012.79
2023-02-19T10:35:45.340Z,1012.87
2023-02-19T10:36:45.374Z,1012.83
2023-02-19T10:37:45.324Z,1012.86
2023-02-19T10:38:45.333Z,1012.97
2023-02-19T10:39:45.310Z,1013.03
2023-02-19T10:40:45.271Z,1012.91
2023-02-19T10:41:45.301Z,1012.88
2023-02-19T10:42:45.278Z,1012.99
2023-02-19T10:43:45.257Z,1012.95
2023-02-19T10:44:45.233Z,1012.94
2023-02-19T10:45:45.215Z,1012.91
2023-02-19T10:46:45.255Z,1012.92
2023-02-19T10:47:45.204Z,1012.84
2023-02-19T10:48:45.164Z,1012.85
2023-02-19T10:49:45.196Z,1012.86
2023-02-19T10:50:45.159Z,1013.14
2023-02-19T10:51:45.146Z,1013.08
2023-02-19T10:52:45.121Z,1013.01
2023-02-19T10:53:45.109Z,1013.06
2023-02-19T10:54:45.124Z,1013.18
2023-02-19T10:55:45.101Z,1013.16
2023-02-19T10:56:45.078Z,1013.18
2023-02-19T10:57:45.076Z,1013.32
2023-02-19T10:58:45.045Z,1013.29
2023-02-19T10:59:45.031Z,1013.41
2023-02-19T11:00:45.045Z,1013.18
2023-02-19T11:01:45.042Z,1013.15
2023-02-19T11:02:44.983Z,1013.21
2023-02-19T11:03:44.986Z,1013.28
2023-02-19T11:04:45.045Z,1013.24
2023-02-19T11:05:44.985Z,1013.23
2023-02-19T11:06:45.055Z,1013.23
2023-02-19T11:07:44.933Z,1013.29
2023-02-19T11:08:44.924Z,1013.36
2023-02-19T11:09:44.913Z,1013.31
2023-02-19T11:10:44.930Z,1013.29
2023-02-19T11:11:44.892Z,1013.35
2023-02-19T11:12:44.865Z,1013.48
2023-02-19T11:13:44.863Z,1013.37
2023-02-19T11:14:44.853Z,1013.39
2023-02-19T11:15:44.841Z,1013.42
2023-02-19T11:16:44.809Z,1013.51
2023-02-19T11:17:44.840Z,1013.47
2023-02-19T11:18:44.793Z,1013.32
2023-02-19T11:19:44.792Z,1013.41
2023-02-19T11:20:44.772Z,1013.36
2023-02-19T11:21:44.760Z,1013.39
2023-02-19T11:22:44.771Z,1013.53
2023-02-19T11:23:44.770Z,1013.51
2023-02-19T11:24:44.713Z,1013.49
2023-02-19T11:25:44.743Z,1013.61
2023-02-19T11:26:44.689Z,1013.54
2023-02-19T11:27:44.700Z,1013.73
2023-02-19T11:28:44.682Z,1013.69
2023-02-19T11:29:44.650Z,1013.60
2023-02-19T11:30:44.648Z,1013.65
2023-02-19T11:31:44.690Z,1013.64
2023-02-19T11:32:44.621Z,1013.66
2023-02-19T11:33:44.614Z,1013.65
2023-02-19T11:34:44.581Z,1013.70
2023-02-19T11:35:44.584Z,1013.69
2023-02-19T11:36:44.569Z,1013.83
2023-02-19T11:37:44.567Z,1013.70
2023-02-19T11:38:44.550Z,1013.67
2023-02-19T11:39:44.523Z,1013.68
2023-02-19T11:40:44.503Z,1013.60
2023-02-19T11:41:44.526Z,1013.67
2023-02-19T11:42:44.495Z,1013.68
2023-02-19T11:43:44.486Z,1013.58
2023-02-19T11:44:44.478Z,1013.56
2023-02-19T11:45:44.474Z,1013.62
2023-02-19T11:46:44.501Z,1013.66
2023-02-19T11:47:44.436Z,1013.61
2023-02-19T11:48:44.420Z,1013.56
2023-02-19T11:49:44.418Z,1013.63
2023-02-19T11:50:44.388Z,1013.75
2023-02-19T11:51:47.623Z,1013.71
2023-02-19T11:52:45.380Z,1013.73
2023-02-19T11:53:44.345Z,1013.78
2023-02-19T11:54:44.360Z,1013.79
2023-02-19T11:55:44.372Z,1013.84
2023-02-19T11:56:44.355Z,1013.87
2023-02-19T11:57:44.313Z,1013.78
2023-02-19T11:58:44.273Z,1013.74
2023-02-19T11:59:44.280Z,1013.79
2023-02-19T12:00:44.256Z,1013.72
2023-02-19T12:01:44.292Z,1013.75
2023-02-19T12:02:44.292Z,1013.73
2023-02-19T12:03:44.222Z,1013.76
2023-02-19T12:04:44.215Z,1013.70
2023-02-19T12:05:44.183Z,1013.84